Time;durP1;ratioP1;P1;durP2;ratioP2;P2;SDS_P1;SDS_P2;PMS_P1;PMS_P2;Temp;Humidity;BMP_temperature;BMP_pressure;BME280_temperature;BME280_humidity;BME280_pressure;Samples;Min_cycle;Max_cycle;Signal;HPM_P1;HPM_P2
2023/07/28 00:00:46;;;;;;;8.70;5.82;;;17.00;1.00;;;;;;6230683;23;20215;-96
2023/07/28 00:03:13;;;;;;;7.20;5.85;;;17.00;1.00;;;;;;6233960;23;20249;-95
2023/07/28 00:05:40;;;;;;;7.95;5.47;;;16.90;1.00;;;;;;6232080;23;20151;-96
2023/07/28 00:08:07;;;;;;;7.53;6.20;;;16.90;1.00;;;;;;6234089;23;20170;-96
2023/07/28 00:10:34;;;;;;;7.70;6.20;;;16.90;1.00;;;;;;6235031;23;20176;-95
2023/07/28 00:13:03;;;;;;;6.70;5.97;;;16.90;1.00;;;;;;6232524;23;20169;-96
2023/07/28 00:15:30;;;;;;;8.50;6.75;;;17.00;1.00;;;;;;6234496;23;20179;-96
2023/07/28 00:17:59;;;;;;;8.82;5.80;;;17.00;1.00;;;;;;6237465;23;20200;-96
2023/07/28 00:20:26;;;;;;;10.15;7.03;;;17.00;1.00;;;;;;6241268;23;20165;-96
2023/07/28 00:22:53;;;;;;;8.27;6.05;;;17.00;1.00;;;;;;6239207;23;20224;-96
2023/07/28 00:25:22;;;;;;;8.60;6.20;;;17.00;1.00;;;;;;6240607;23;20169;-96
2023/07/28 00:27:51;;;;;;;7.85;6.32;;;16.90;1.00;;;;;;6233556;22;20471;-96
2023/07/28 00:30:19;;;;;;;9.18;6.93;;;16.90;1.00;;;;;;6232379;22;20204;-95
2023/07/28 00:32:47;;;;;;;9.95;6.72;;;16.90;1.00;;;;;;6237632;23;20168;-94
2023/07/28 00:35:14;;;;;;;7.40;6.63;;;16.90;1.00;;;;;;6236226;23;20236;-96
2023/07/28 00:37:41;;;;;;;9.77;6.68;;;16.90;1.00;;;;;;6240042;23;20173;-96
2023/07/28 00:42:36;;;;;;;11.93;7.60;;;16.90;1.00;;;;;;6236536;22;20289;-96
2023/07/28 00:45:03;;;;;;;9.00;7.45;;;17.00;1.00;;;;;;6238063;22;20215;-96
2023/07/28 00:47:32;;;;;;;12.60;7.60;;;17.00;1.00;;;;;;6240590;23;20176;-95
2023/07/28 00:49:59;;;;;;;8.90;7.10;;;17.00;1.00;;;;;;6235109;23;20188;-94
2023/07/28 00:52:26;;;;;;;7.72;6.80;;;17.00;1.00;;;;;;6233015;23;20207;-95
2023/07/28 00:54:53;;;;;;;9.00;7.32;;;17.00;1.00;;;;;;6235528;23;20176;-96
2023/07/28 00:57:20;;;;;;;10.48;7.55;;;17.00;1.00;;;;;;6235892;23;20173;-95
2023/07/28 00:59:47;;;;;;;10.25;8.10;;;17.10;1.00;;;;;;6241005;23;20313;-96
2023/07/28 01:02:15;;;;;;;12.13;8.05;;;17.10;1.00;;;;;;6238591;22;20169;-96
2023/07/28 01:04:43;;;;;;;9.05;7.45;;;17.00;1.00;;;;;;6233002;23;20173;-96
2023/07/28 01:07:15;;;;;;;10.50;8.18;;;17.10;1.00;;;;;;6229977;23;20173;-95
2023/07/28 01:09:51;;;;;;;10.30;7.85;;;17.10;1.00;;;;;;6231895;23;20176;-96
2023/07/28 01:12:18;;;;;;;10.35;7.90;;;17.10;1.00;;;;;;6233965;23;20220;-96
2023/07/28 01:14:46;;;;;;;10.07;7.90;;;17.10;1.00;;;;;;6231276;23;20173;-96
2023/07/28 01:17:13;;;;;;;13.10;8.27;;;17.10;1.00;;;;;;6230920;23;20184;-96
2023/07/28 01:19:40;;;;;;;12.43;8.30;;;17.10;1.00;;;;;;6235860;23;20170;-96
2023/07/28 01:22:53;;;;;;;12.38;8.10;;;17.10;1.00;;;;;;6238339;23;20180;-95
2023/07/28 01:25:27;;;;;;;11.70;7.40;;;17.10;1.00;;;;;;6238085;23;20169;-95
2023/07/28 01:27:57;;;;;;;9.88;7.88;;;17.00;1.00;;;;;;6239788;22;20226;-96
2023/07/28 01:30:25;;;;;;;11.02;7.50;;;17.10;1.00;;;;;;6239852;23;20204;-95
2023/07/28 01:32:55;;;;;;;10.43;7.40;;;17.00;10.70;;;;;;6237864;23;20200;-95
2023/07/28 01:35:22;;;;;;;11.88;7.10;;;17.00;84.70;;;;;;6234560;23;20187;-95
2023/07/28 01:37:50;;;;;;;11.57;7.70;;;16.90;91.90;;;;;;6237395;22;20165;-94
2023/07/28 01:40:17;;;;;;;10.38;7.80;;;16.90;99.90;;;;;;6237691;23;20169;-96
2023/07/28 01:42:45;;;;;;;12.27;8.20;;;17.00;99.90;;;;;;6237832;23;20167;-95
2023/07/28 01:45:13;;;;;;;10.05;7.78;;;16.90;99.90;;;;;;6238064;23;20178;-95
2023/07/28 01:47:40;;;;;;;11.48;7.50;;;17.00;99.90;;;;;;6243991;23;20152;-95
2023/07/28 01:52:42;;;;;;;10.63;7.45;;;17.10;99.90;;;;;;6228624;22;20221;-96
2023/07/28 01:55:11;;;;;;;11.80;7.93;;;17.10;99.90;;;;;;6242549;22;20161;-96
2023/07/28 01:57:40;;;;;;;13.50;7.30;;;17.10;99.90;;;;;;6239813;23;20164;-96
2023/07/28 02:00:11;;;;;;;8.30;7.13;;;17.10;99.90;;;;;;6238491;23;20165;-95
2023/07/28 02:02:39;;;;;;;8.07;6.72;;;17.10;98.10;;;;;;6239559;23;20149;-95
2023/07/28 02:05:07;;;;;;;12.65;6.95;;;17.10;96.70;;;;;;6237538;23;20173;-96
2023/07/28 02:07:34;;;;;;;9.23;6.45;;;17.20;99.90;;;;;;6236576;23;20184;-95
2023/07/28 02:10:01;;;;;;;10.73;6.43;;;17.20;99.90;;;;;;6234349;23;20188;-95
2023/07/28 02:12:28;;;;;;;8.90;6.50;;;17.20;91.10;;;;;;6239069;23;20172;-94
2023/07/28 02:14:55;;;;;;;9.02;6.90;;;17.10;99.90;;;;;;6238941;23;20176;-95
2023/07/28 02:17:22;;;;;;;13.20;6.80;;;17.20;98.80;;;;;;6241242;23;20157;-96
2023/07/28 02:19:52;;;;;;;10.38;6.45;;;17.20;95.40;;;;;;6238709;23;20181;-96
2023/07/28 02:22:19;;;;;;;11.75;6.85;;;17.20;77.90;;;;;;6237678;23;20161;-96
2023/07/28 02:24:47;;;;;;;11.45;7.55;;;17.20;69.10;;;;;;6236702;23;20200;-96
2023/07/28 02:27:14;;;;;;;13.43;6.70;;;17.20;72.50;;;;;;6237942;23;20195;-94
2023/07/28 02:29:41;;;;;;;11.88;7.07;;;17.20;89.20;;;;;;6238078;23;20211;-96
2023/07/28 02:32:09;;;;;;;10.95;7.00;;;17.20;94.30;;;;;;6236858;23;20172;-95
2023/07/28 02:34:38;;;;;;;11.05;7.90;;;17.30;99.90;;;;;;6237951;23;20228;-95
2023/07/28 02:37:07;;;;;;;13.02;7.32;;;17.30;99.90;;;;;;6238256;23;20207;-96
2023/07/28 02:39:34;;;;;;;12.85;6.88;;;17.30;99.90;;;;;;6234757;23;20176;-95
2023/07/28 02:42:01;;;;;;;10.70;7.47;;;17.30;99.90;;;;;;6237269;23;20177;-96
2023/07/28 02:44:28;;;;;;;13.32;8.00;;;17.30;99.90;;;;;;6237513;23;20176;-95
2023/07/28 02:46:55;;;;;;;13.05;8.43;;;17.30;99.90;;;;;;6241904;23;20171;-96
2023/07/28 02:49:22;;;;;;;14.35;7.88;;;17.30;99.90;;;;;;6241363;23;20184;-96
2023/07/28 02:51:49;;;;;;;10.10;7.38;;;17.30;99.90;;;;;;6242524;23;20195;-96
2023/07/28 02:54:18;;;;;;;8.93;8.02;;;17.30;99.90;;;;;;6244462;22;20176;-95
2023/07/28 02:56:47;;;;;;;9.70;8.07;;;17.30;99.90;;;;;;6228763;22;20972;-95
2023/07/28 02:59:15;;;;;;;12.40;7.72;;;17.30;99.90;;;;;;6242776;23;20168;-96
2023/07/28 03:01:44;;;;;;;14.45;8.73;;;17.40;99.90;;;;;;6241389;23;20173;-96
2023/07/28 03:04:11;;;;;;;11.30;8.82;;;17.40;99.90;;;;;;6241977;23;20165;-95
2023/07/28 03:06:38;;;;;;;11.30;8.95;;;17.30;99.90;;;;;;6237773;23;20157;-95
2023/07/28 03:09:05;;;;;;;10.98;8.85;;;17.30;99.90;;;;;;6238872;23;20192;-95
2023/07/28 03:11:34;;;;;;;12.90;9.05;;;17.20;99.90;;;;;;6238512;23;20168;-95
2023/07/28 03:14:02;;;;;;;11.80;8.85;;;17.20;99.90;;;;;;6240324;23;20203;-95
2023/07/28 03:16:29;;;;;;;12.32;9.05;;;17.20;99.90;;;;;;6237658;23;20188;-95
2023/07/28 03:18:56;;;;;;;11.50;8.70;;;17.20;99.90;;;;;;6237170;23;20173;-95
2023/07/28 03:21:25;;;;;;;13.18;8.30;;;17.30;99.90;;;;;;6236145;23;20178;-94
2023/07/28 03:23:52;;;;;;;12.45;9.10;;;17.30;99.90;;;;;;6232394;23;20169;-96
2023/07/28 03:26:19;;;;;;;12.88;8.48;;;17.30;99.90;;;;;;6241566;23;20233;-95
2023/07/28 03:28:47;;;;;;;8.70;7.50;;;17.30;99.90;;;;;;6241404;23;20172;-95
2023/07/28 03:31:14;;;;;;;10.23;8.02;;;17.30;99.90;;;;;;6243252;22;20220;-94
2023/07/28 03:38:52;;;;;;;11.07;7.03;;;17.20;99.90;;;;;;6237005;22;20214;-96
2023/07/28 03:43:59;;;;;;;8.13;7.03;;;17.20;99.90;;;;;;6199613;22;20209;-96
2023/07/28 03:46:26;;;;;;;8.30;6.68;;;17.20;99.90;;;;;;6241880;22;22458;-95
2023/07/28 03:54:03;;;;;;;8.38;6.70;;;17.30;99.90;;;;;;6239593;23;20627;-96
2023/07/28 07:02:35;;;;;;;4.40;3.60;;;21.50;1.00;;;;;;6224543;22;20208;-96
2023/07/28 07:05:02;;;;;;;3.70;3.17;;;21.60;1.00;;;;;;6226416;22;20224;-94
2023/07/28 07:07:29;;;;;;;4.47;2.88;;;21.50;1.00;;;;;;6221381;23;20184;-94
2023/07/28 07:09:56;;;;;;;2.40;2.20;;;21.50;1.00;;;;;;6219885;23;20639;-95
2023/07/28 07:12:22;;;;;;;2.88;2.40;;;21.50;1.00;;;;;;6223205;23;20252;-95
2023/07/28 07:14:49;;;;;;;3.20;2.90;;;21.30;1.00;;;;;;6224115;23;20247;-95
2023/07/28 07:17:16;;;;;;;3.20;2.78;;;21.20;1.00;;;;;;6225944;23;20247;-96
2023/07/28 07:19:44;;;;;;;4.10;3.80;;;21.20;1.00;;;;;;6224677;23;20248;-94
2023/07/28 07:22:11;;;;;;;5.63;3.85;;;21.30;1.00;;;;;;6225267;23;20184;-95
2023/07/28 07:24:38;;;;;;;3.90;3.60;;;21.60;1.00;;;;;;6226990;23;20409;-96
2023/07/28 07:34:53;;;;;;;2.92;2.58;;;22.60;99.90;;;;;;6213926;22;20658;-95
2023/07/28 07:37:20;;;;;;;3.10;2.80;;;22.90;99.90;;;;;;6226707;23;20196;-96
2023/07/28 07:39:50;;;;;;;3.40;3.05;;;23.20;1.00;;;;;;6237201;23;20173;-96
2023/07/28 07:42:17;;;;;;;2.30;2.10;;;23.30;1.00;;;;;;6236509;22;20205;-96
2023/07/28 07:44:44;;;;;;;3.58;3.00;;;23.30;99.90;;;;;;6237059;23;20157;-96
2023/07/28 07:47:15;;;;;;;8.80;2.38;;;23.20;99.90;;;;;;6237171;23;20179;-96
2023/07/28 07:49:42;;;;;;;2.50;2.30;;;23.20;99.90;;;;;;6234041;23;20173;-96
2023/07/28 07:52:11;;;;;;;2.70;2.35;;;23.30;99.90;;;;;;6241274;23;20173;-96
2023/07/28 07:54:38;;;;;;;2.40;2.20;;;23.20;99.90;;;;;;6234387;23;20201;-96
2023/07/28 07:57:06;;;;;;;2.60;2.40;;;23.20;99.90;;;;;;6233942;23;20173;-96
2023/07/28 07:59:33;;;;;;;3.53;2.25;;;23.30;99.90;;;;;;6230482;23;20173;-96
2023/07/28 08:02:02;;;;;;;2.42;2.10;;;23.40;99.90;;;;;;6231485;23;20180;-96
2023/07/28 08:04:30;;;;;;;3.42;1.85;;;23.60;55.10;;;;;;6221821;23;20199;-96
2023/07/28 08:06:57;;;;;;;2.50;2.30;;;23.80;1.00;;;;;;6224540;23;20184;-96
2023/07/28 08:09:25;;;;;;;3.95;1.73;;;23.90;1.00;;;;;;6227242;23;20272;-95
2023/07/28 08:11:53;;;;;;;3.85;2.17;;;24.30;1.00;;;;;;6219204;23;20232;-95
2023/07/28 08:14:20;;;;;;;2.30;1.80;;;24.80;99.90;;;;;;6219632;23;20180;-96
2023/07/28 08:16:47;;;;;;;2.60;2.10;;;25.10;1.00;;;;;;6228253;23;20209;-96
2023/07/28 08:19:14;;;;;;;3.38;2.60;;;24.90;99.90;;;;;;6230833;23;20643;-96
2023/07/28 08:21:41;;;;;;;2.80;2.50;;;24.50;99.90;;;;;;6231000;23;20168;-96
2023/07/28 08:24:08;;;;;;;4.45;2.95;;;24.30;1.00;;;;;;6228324;23;20181;-96
2023/07/28 08:26:37;;;;;;;2.70;2.17;;;24.20;1.00;;;;;;6230229;23;20180;-96
2023/07/28 08:29:04;;;;;;;4.00;3.13;;;24.10;1.00;;;;;;6233669;23;20173;-96
2023/07/28 08:31:31;;;;;;;4.43;2.60;;;24.00;1.00;;;;;;6235933;23;20181;-96
2023/07/28 08:33:58;;;;;;;2.72;1.88;;;24.00;1.00;;;;;;6236546;23;20165;-96
2023/07/28 08:36:25;;;;;;;2.10;1.98;;;24.10;1.00;;;;;;6234754;23;20181;-96
2023/07/28 08:38:52;;;;;;;2.92;2.05;;;24.10;1.00;;;;;;6236090;22;20224;-96
2023/07/28 08:41:19;;;;;;;4.22;3.40;;;24.10;1.00;;;;;;6241251;23;20183;-96
2023/07/28 08:43:47;;;;;;;1.50;1.40;;;24.10;1.00;;;;;;6233092;23;20170;-96
2023/07/28 08:46:14;;;;;;;3.90;3.60;;;24.20;99.90;;;;;;6232485;23;20176;-95
2023/07/28 08:48:41;;;;;;;4.20;3.80;;;24.30;99.90;;;;;;6242762;22;20180;-94
2023/07/28 08:51:40;;;;;;;2.85;2.65;;;24.30;99.90;;;;;;6227940;22;20188;31
2023/07/28 08:54:07;;;;;;;1.58;1.40;;;24.30;99.90;;;;;;6190966;22;20193;-96
2023/07/28 08:56:34;;;;;;;4.30;3.20;;;24.20;1.00;;;;;;6230593;23;20153;-95
2023/07/28 08:59:04;;;;;;;3.22;1.88;;;23.90;18.20;;;;;;6238682;22;20227;-96
2023/07/28 09:01:31;;;;;;;3.72;3.22;;;23.70;99.90;;;;;;6235090;22;20200;-96
2023/07/28 09:03:58;;;;;;;2.75;1.60;;;23.60;1.00;;;;;;6203468;22;20194;-96
2023/07/28 09:11:29;;;;;;;10.75;8.65;;;23.70;99.90;;;;;;6217252;22;20202;-95
2023/07/28 09:13:57;;;;;;;5.25;4.15;;;23.70;1.00;;;;;;6234443;23;20173;-95
2023/07/28 09:16:25;;;;;;;3.20;2.03;;;23.90;99.90;;;;;;6234096;23;20183;-96
2023/07/28 09:31:51;;;;;;;4.97;3.38;;;22.90;99.90;;;;;;6190575;22;20245;-96
2023/07/28 09:41:59;;;;;;;1.88;1.70;;;24.10;44.80;;;;;;6231045;22;20200;-96
2023/07/28 09:44:27;;;;;;;2.60;2.40;;;24.40;1.00;;;;;;6228719;23;20149;-96
2023/07/28 09:46:57;;;;;;;4.13;3.55;;;24.40;99.90;;;;;;6231589;23;20200;-95
2023/07/28 09:49:30;;;;;;;5.07;3.00;;;24.20;99.90;;;;;;6234606;23;20153;-96
2023/07/28 10:07:55;;;;;;;5.05;4.35;;;23.80;1.00;;;;;;6228600;22;20264;-96
2023/07/28 10:10:22;;;;;;;5.03;4.40;;;23.90;1.00;;;;;;6235730;23;20224;-96
2023/07/28 10:12:51;;;;;;;3.30;3.00;;;24.10;99.90;;;;;;6235563;23;20153;-96
2023/07/28 10:15:20;;;;;;;8.60;4.93;;;24.20;1.00;;;;;;6230597;23;20165;-96
2023/07/28 10:17:49;;;;;;;6.18;4.22;;;24.00;1.00;;;;;;6227762;23;20169;-95
2023/07/28 10:20:34;;;;;;;4.43;3.92;;;23.80;1.00;;;;;;6229719;23;20227;-95
2023/07/28 10:23:08;;;;;;;4.88;3.65;;;23.60;55.00;;;;;;6233950;23;20165;-95
2023/07/28 10:25:37;;;;;;;4.57;3.90;;;23.50;99.90;;;;;;6229014;23;20149;-96
2023/07/28 10:28:05;;;;;;;4.50;3.17;;;23.50;99.90;;;;;;6232267;23;20168;-93
2023/07/28 10:30:38;;;;;;;3.65;3.30;;;23.70;99.90;;;;;;6229082;23;20219;-94
2023/07/28 10:33:05;;;;;;;3.33;3.00;;;23.90;99.90;;;;;;6226744;23;20168;-95
2023/07/28 10:35:34;;;;;;;4.30;3.08;;;24.00;29.80;;;;;;6240031;23;20169;-95
2023/07/28 10:38:34;;;;;;;5.00;2.70;;;24.10;1.00;;;;;;6227505;23;20153;-95
2023/07/28 10:41:09;;;;;;;2.70;2.50;;;24.40;1.00;;;;;;6236824;23;20161;-95
2023/07/28 10:43:36;;;;;;;3.28;2.78;;;24.70;1.00;;;;;;6233670;23;20183;-96
2023/07/28 10:46:04;;;;;;;3.58;2.50;;;24.90;66.30;;;;;;6226976;23;20173;-95
2023/07/28 10:48:31;;;;;;;2.83;2.63;;;25.10;1.00;;;;;;6229005;23;20173;-95
2023/07/28 10:50:59;;;;;;;2.80;2.60;;;25.10;1.00;;;;;;6230106;23;20196;-96
2023/07/28 10:53:26;;;;;;;2.78;2.58;;;25.10;99.90;;;;;;6226111;23;20176;-95
2023/07/28 10:55:55;;;;;;;2.50;2.30;;;25.10;1.00;;;;;;6221248;23;20212;-95
2023/07/28 10:58:22;;;;;;;2.50;2.13;;;25.40;99.90;;;;;;6222246;23;20539;-94
2023/07/28 11:00:50;;;;;;;2.50;2.30;;;25.90;1.00;;;;;;6218909;23;20169;-95
2023/07/28 11:03:17;;;;;;;2.33;2.13;;;26.20;99.90;;;;;;6220443;23;20220;-94
2023/07/28 11:05:50;;;;;;;8.85;2.67;;;26.00;1.00;;;;;;6222574;23;20204;-94
2023/07/28 11:08:17;;;;;;;3.38;1.83;;;25.10;99.90;;;;;;6224364;23;20220;-95
2023/07/28 11:10:45;;;;;;;2.17;1.63;;;23.80;1.00;;;;;;6240415;22;20197;-96
2023/07/28 11:18:28;;;;;;;5.07;2.65;;;21.80;1.00;;;;;;6223766;22;20184;-96
2023/07/28 11:20:55;;;;;;;3.05;2.53;;;21.60;1.00;;;;;;6238780;22;20205;-96
2023/07/28 11:23:23;;;;;;;4.30;2.83;;;21.30;62.10;;;;;;6239626;23;20168;-96
2023/07/28 11:25:51;;;;;;;4.85;2.72;;;21.10;1.00;;;;;;6230393;23;20173;-96
2023/07/28 11:28:20;;;;;;;3.47;2.90;;;21.20;99.90;;;;;;6224011;23;20231;-96
2023/07/28 11:30:47;;;;;;;4.35;3.08;;;21.30;1.00;;;;;;6220771;23;20204;-96
2023/07/28 11:33:17;;;;;;;3.72;2.97;;;21.50;99.90;;;;;;6221773;23;20180;-96
2023/07/28 11:46:58;;;;;;;3.17;1.58;;;23.10;99.90;;;;;;6224065;22;20223;-96
2023/07/28 11:49:25;;;;;;;1.90;1.67;;;23.30;91.00;;;;;;6234767;23;20184;-96
2023/07/28 11:51:54;;;;;;;2.55;1.35;;;23.60;1.00;;;;;;6221704;23;20216;-94
2023/07/28 11:54:24;;;;;;;1.55;1.30;;;23.90;99.90;;;;;;6220716;23;20562;-95
2023/07/28 11:56:52;;;;;;;1.70;1.60;;;23.80;1.00;;;;;;6218882;23;20179;-94
2023/07/28 12:40:30;;;;;;;1.10;1.00;;;23.60;93.80;;;;;;6206774;22;20196;-94
2023/07/28 12:42:57;;;;;;;0.95;0.95;;;24.10;1.00;;;;;;6225128;23;20244;-95
2023/07/28 12:45:25;;;;;;;0.90;0.70;;;24.80;99.90;;;;;;6224275;23;20176;-95
2023/07/28 15:57:28;;;;;;;1.52;1.23;;;25.30;1.00;;;;;;6204397;22;20255;-92
2023/07/28 15:59:58;;;;;;;1.50;1.38;;;25.30;70.40;;;;;;6216252;23;20156;-92
2023/07/28 16:02:26;;;;;;;1.80;1.70;;;25.10;1.00;;;;;;6215393;23;20216;-95
2023/07/28 16:04:53;;;;;;;2.05;1.48;;;24.90;1.00;;;;;;6216029;23;20177;-94
2023/07/28 16:07:20;;;;;;;3.25;1.45;;;24.70;1.00;;;;;;6215942;23;20166;-94
2023/07/28 16:09:47;;;;;;;1.73;1.52;;;24.60;1.00;;;;;;6215471;23;20185;-95
2023/07/28 16:12:15;;;;;;;1.60;1.50;;;24.60;1.00;;;;;;6215915;23;20502;-94
2023/07/28 16:14:49;;;;;;;2.10;1.40;;;24.60;1.00;;;;;;6215682;23;20219;-93
2023/07/28 16:17:19;;;;;;;2.47;1.60;;;24.50;1.00;;;;;;6215440;23;20168;-91
2023/07/28 16:20:17;;;;;;;3.55;1.90;;;24.40;33.10;;;;;;6215324;23;20219;-92
2023/07/28 16:23:03;;;;;;;2.03;1.52;;;24.30;99.90;;;;;;6204583;22;20623;-95
2023/07/28 16:25:33;;;;;;;1.50;1.40;;;24.30;99.90;;;;;;6215085;23;20184;-91
2023/07/28 16:28:21;;;;;;;1.83;1.63;;;24.20;99.90;;;;;;6214695;23;20168;-91
2023/07/28 16:30:59;;;;;;;2.08;1.88;;;24.10;99.90;;;;;;6215218;23;20169;-92
2023/07/28 16:36:37;;;;;;;1.98;1.77;;;24.00;99.90;;;;;;6209603;23;20172;-94
2023/07/28 16:39:09;;;;;;;1.80;1.70;;;23.90;99.90;;;;;;6214984;23;20593;-90
2023/07/28 16:41:43;;;;;;;2.05;1.70;;;23.90;99.90;;;;;;6219619;23;20157;-95
2023/07/28 16:44:14;;;;;;;1.80;1.65;;;24.00;1.00;;;;;;6214920;23;20503;-90
2023/07/28 16:46:51;;;;;;;1.73;1.50;;;24.00;99.90;;;;;;6214644;23;20511;-92
2023/07/28 16:49:19;;;;;;;1.40;1.25;;;24.00;99.90;;;;;;6214995;23;20172;-92
2023/07/28 16:51:47;;;;;;;1.58;1.20;;;24.10;99.90;;;;;;6215418;23;20666;-90
2023/07/28 16:54:14;;;;;;;5.97;1.08;;;24.40;99.90;;;;;;6214047;23;20172;-92
2023/07/28 16:56:52;;;;;;;3.88;1.13;;;24.50;99.90;;;;;;6214518;23;20196;-92
2023/07/28 16:59:46;;;;;;;2.35;1.20;;;24.90;1.00;;;;;;6214660;23;20625;-90
2023/07/28 17:02:13;;;;;;;1.83;1.33;;;25.10;1.00;;;;;;6208748;23;20172;-91
2023/07/28 17:04:43;;;;;;;1.80;1.60;;;25.10;1.00;;;;;;6215235;23;20192;-91
2023/07/28 17:07:10;;;;;;;3.15;1.85;;;24.90;1.00;;;;;;6215230;23;20615;-91
2023/07/28 17:09:37;;;;;;;6.80;1.63;;;24.80;1.00;;;;;;6215113;23;20223;-92
2023/07/28 17:12:05;;;;;;;2.33;1.80;;;25.10;1.00;;;;;;6215290;23;20185;-94
2023/07/28 17:14:32;;;;;;;4.13;2.00;;;25.70;1.00;;;;;;6214471;23;20245;-92
2023/07/28 17:17:00;;;;;;;2.40;1.88;;;26.00;99.90;;;;;;6214846;23;20570;-92
2023/07/28 17:26:52;;;;;;;2.13;1.92;;;25.20;99.90;;;;;;5882989;24;20174;-96
2023/07/28 17:29:22;;;;;;;3.30;2.05;;;25.70;99.90;;;;;;5896757;24;20173;-92
2023/07/28 17:31:49;;;;;;;4.03;2.13;;;26.00;1.00;;;;;;5896791;24;20272;-92
2023/07/28 17:34:29;;;;;;;2.47;2.13;;;26.10;99.90;;;;;;5897266;24;20263;-93
2023/07/28 17:58:23;;;;;;;2.50;2.22;;;26.30;1.00;;;;;;6211084;22;20206;-92
2023/07/28 18:42:41;;;;;;;5.35;2.97;;;21.30;1.00;;;;;;5815958;24;20175;-96
2023/07/28 19:17:48;;;;;;;4.80;4.30;;;19.90;99.90;;;;;;6214412;22;20696;-94
2023/07/28 19:20:20;;;;;;;5.15;4.20;;;19.70;99.90;;;;;;6216390;23;20459;-92
2023/07/28 19:22:48;;;;;;;7.45;5.65;;;19.60;1.00;;;;;;6213403;23;20193;-91
2023/07/28 19:25:15;;;;;;;6.70;4.40;;;19.50;1.00;;;;;;6215093;23;20638;-91
2023/07/28 19:27:42;;;;;;;4.60;4.20;;;19.40;13.00;;;;;;6216146;23;20562;-92
2023/07/28 19:30:10;;;;;;;7.57;3.80;;;19.30;99.90;;;;;;6216262;23;20169;-90
2023/07/28 19:32:37;;;;;;;5.65;4.05;;;19.30;99.90;;;;;;6214886;23;20220;-85
2023/07/28 19:35:05;;;;;;;4.78;3.30;;;19.20;99.90;;;;;;6216616;23;20169;-85
2023/07/28 19:37:49;;;;;;;3.55;3.10;;;19.10;99.90;;;;;;6216434;23;20613;-94
2023/07/28 19:40:16;;;;;;;3.90;3.50;;;19.00;99.90;;;;;;6217020;23;20235;-93
2023/07/28 19:43:00;;;;;;;3.67;3.30;;;18.90;99.90;;;;;;6216391;23;20505;-91
2023/07/28 19:53:07;;;;;;;4.28;3.33;;;18.70;1.00;;;;;;6153562;23;20205;-91
2023/07/28 19:55:36;;;;;;;3.50;3.10;;;18.60;1.00;;;;;;6065418;23;20175;-84
2023/07/28 19:58:06;;;;;;;3.47;3.17;;;18.50;1.00;;;;;;6179464;23;20200;-84
2023/07/28 20:00:33;;;;;;;4.25;3.28;;;18.40;1.00;;;;;;6216206;23;20198;-84
2023/07/28 20:03:01;;;;;;;3.10;2.80;;;18.40;1.00;;;;;;6204325;23;20207;-84
2023/07/28 20:05:28;;;;;;;4.97;3.28;;;18.30;1.00;;;;;;6215581;23;20169;-84
2023/07/28 20:07:56;;;;;;;4.63;3.50;;;18.20;1.00;;;;;;6216278;23;20169;-84
2023/07/28 20:10:23;;;;;;;3.33;3.03;;;18.20;93.50;;;;;;6215459;23;20192;-84
2023/07/28 20:12:52;;;;;;;3.38;3.05;;;18.20;99.90;;;;;;6215574;23;20184;-84
2023/07/28 20:15:19;;;;;;;6.38;3.38;;;18.10;99.90;;;;;;6215958;23;20248;-84
2023/07/28 20:17:46;;;;;;;3.55;3.22;;;18.10;99.90;;;;;;6215649;23;20204;-84
2023/07/28 20:20:13;;;;;;;3.00;2.72;;;18.10;99.90;;;;;;6215926;23;20169;-85
2023/07/28 20:22:40;;;;;;;3.40;3.10;;;18.10;99.90;;;;;;6215661;23;20166;-86
2023/07/28 20:25:08;;;;;;;5.45;3.47;;;18.00;99.90;;;;;;6215773;23;20204;-86
2023/07/28 20:27:42;;;;;;;5.43;3.25;;;18.00;99.90;;;;;;6213800;23;20169;-84
2023/07/28 20:30:11;;;;;;;5.43;3.47;;;18.00;99.90;;;;;;6215463;23;20163;-86
2023/07/28 20:32:38;;;;;;;5.85;3.22;;;18.00;99.90;;;;;;6215886;23;20276;-86
2023/07/28 20:35:06;;;;;;;4.07;3.22;;;17.90;99.90;;;;;;6215382;23;20231;-86
2023/07/28 20:37:32;;;;;;;3.38;3.08;;;17.80;99.90;;;;;;6215116;23;20187;-86
2023/07/28 20:39:59;;;;;;;3.28;2.97;;;17.80;99.90;;;;;;6215740;23;20719;-85
2023/07/28 20:42:27;;;;;;;5.00;3.35;;;17.70;1.00;;;;;;6215795;23;20251;-85
2023/07/28 20:44:54;;;;;;;5.10;2.75;;;17.70;1.00;;;;;;6215468;23;20171;-85
2023/07/28 20:47:22;;;;;;;3.38;3.08;;;17.60;1.00;;;;;;6215648;23;20170;-85
2023/07/28 20:49:49;;;;;;;6.32;4.05;;;17.50;1.00;;;;;;6215888;23;20255;-86
